createdAt,value
2023-03-28T00:01:11.050Z,2.50
2023-03-28T00:03:40.503Z,2.50
2023-03-28T00:06:12.914Z,2.50
2023-03-28T00:08:40.672Z,2.50
2023-03-28T00:11:20.924Z,2.40
2023-03-28T00:14:00.511Z,2.40
2023-03-28T00:16:32.230Z,2.40
2023-03-28T00:19:03.130Z,2.40
2023-03-28T00:21:35.332Z,2.40
2023-03-28T00:24:06.328Z,2.40
2023-03-28T00:26:35.973Z,2.30
2023-03-28T00:29:06.555Z,2.30
2023-03-28T00:31:35.115Z,2.30
2023-03-28T00:34:02.415Z,2.30
2023-03-28T00:36:32.604Z,2.30
2023-03-28T00:39:07.195Z,2.20
2023-03-28T00:41:40.225Z,2.20
2023-03-28T00:44:45.112Z,2.10
2023-03-28T00:47:41.719Z,2.10
2023-03-28T00:50:38.271Z,2.00
2023-03-28T00:53:09.209Z,2.00
2023-03-28T00:55:57.535Z,1.90
2023-03-28T00:58:30.984Z,1.90
2023-03-28T01:00:58.595Z,1.90
2023-03-28T01:03:34.528Z,1.90
2023-03-28T01:06:06.252Z,1.80
2023-03-28T01:08:41.697Z,1.90
2023-03-28T01:11:11.787Z,1.90
2023-03-28T01:13:47.511Z,1.80
2023-03-28T01:16:17.504Z,1.80
2023-03-28T01:18:51.553Z,1.80
2023-03-28T01:21:48.686Z,1.80
2023-03-28T01:24:48.885Z,1.80
2023-03-28T01:27:34.098Z,1.70
2023-03-28T01:30:22.942Z,1.70
2023-03-28T01:33:50.644Z,1.70
2023-03-28T01:36:46.959Z,1.70
2023-03-28T01:39:51.432Z,1.70
2023-03-28T01:42:43.889Z,1.60
2023-03-28T01:45:26.295Z,1.60
2023-03-28T01:48:30.830Z,1.50
2023-03-28T01:51:12.256Z,1.40
2023-03-28T01:53:53.774Z,1.40
2023-03-28T01:57:00.582Z,1.40
2023-03-28T01:59:44.865Z,1.30
2023-03-28T02:02:51.121Z,1.30
2023-03-28T02:05:29.496Z,1.30
2023-03-28T02:08:01.243Z,1.30
2023-03-28T02:10:46.720Z,1.20
2023-03-28T02:13:33.526Z,1.20
2023-03-28T02:16:25.736Z,1.20
2023-03-28T02:19:06.354Z,1.10
2023-03-28T02:22:18.504Z,1.10
2023-03-28T02:24:50.490Z,1.00
2023-03-28T02:27:41.147Z,1.00
2023-03-28T02:30:23.030Z,1.00
2023-03-28T02:32:51.733Z,1.00
2023-03-28T02:35:29.361Z,0.90
2023-03-28T02:38:28.695Z,0.90
2023-03-28T02:41:24.597Z,0.80
2023-03-28T02:44:11.559Z,0.80
2023-03-28T02:47:13.539Z,0.80
2023-03-28T02:50:14.066Z,0.80
2023-03-28T02:53:12.577Z,0.70
2023-03-28T02:55:55.052Z,0.70
2023-03-28T02:59:01.989Z,0.60
2023-03-28T03:01:30.298Z,0.60
2023-03-28T03:04:00.755Z,0.60
2023-03-28T03:06:27.859Z,0.60
2023-03-28T03:08:54.924Z,0.60
2023-03-28T03:11:28.012Z,0.50
2023-03-28T03:13:57.290Z,0.50
2023-03-28T03:16:24.357Z,0.50
2023-03-28T03:18:51.838Z,0.50
2023-03-28T03:21:18.790Z,0.50
2023-03-28T03:23:46.189Z,0.50
2023-03-28T03:26:13.521Z,0.40
2023-03-28T03:28:44.515Z,0.40
2023-03-28T03:31:11.947Z,0.40
2023-03-28T03:33:48.123Z,0.40
2023-03-28T03:36:18.879Z,0.40
2023-03-28T03:38:47.469Z,0.40
2023-03-28T03:41:20.345Z,0.30
2023-03-28T03:43:47.459Z,0.30
2023-03-28T03:46:14.643Z,0.30
2023-03-28T03:48:49.621Z,0.30
2023-03-28T03:51:18.063Z,0.30
2023-03-28T03:53:46.696Z,0.30
2023-03-28T03:56:16.540Z,0.40
2023-03-28T03:58:55.511Z,0.40
2023-03-28T04:01:29.973Z,0.40
2023-03-28T04:04:02.154Z,0.40
2023-03-28T04:06:39.691Z,0.40
2023-03-28T04:09:08.946Z,0.40
2023-03-28T04:11:53.010Z,0.40
2023-03-28T04:14:20.992Z,0.40
2023-03-28T04:16:50.721Z,0.40
2023-03-28T04:19:19.067Z,0.30
2023-03-28T04:21:48.996Z,0.30
2023-03-28T04:24:17.313Z,0.30
2023-03-28T04:26:50.725Z,0.30
2023-03-28T04:29:25.145Z,0.40
2023-03-28T04:32:12.836Z,0.40
2023-03-28T04:35:00.999Z,0.30
2023-03-28T04:37:27.920Z,0.30
2023-03-28T04:39:57.344Z,0.30
2023-03-28T04:42:41.303Z,0.30
2023-03-28T04:45:16.441Z,0.30
2023-03-28T04:47:45.998Z,0.20
2023-03-28T04:50:18.312Z,0.20
2023-03-28T04:52:45.568Z,0.10
2023-03-28T04:55:16.009Z,0.10
2023-03-28T04:57:51.455Z,0.20
2023-03-28T05:00:22.559Z,0.10
2023-03-28T05:03:18.233Z,0.10
2023-03-28T05:05:56.397Z,0.10
2023-03-28T05:08:28.460Z,0.10
2023-03-28T05:10:55.979Z,0.00
2023-03-28T05:13:23.538Z,0.00
2023-03-28T05:16:02.514Z,0.00
2023-03-28T05:18:56.475Z,0.00
2023-03-28T05:21:46.286Z,0.00
2023-03-28T05:24:13.433Z,0.00
2023-03-28T05:26:40.738Z,0.00
2023-03-28T05:29:52.618Z,0.00
2023-03-28T05:32:19.637Z,0.00
2023-03-28T05:34:46.524Z,0.00
2023-03-28T05:37:13.958Z,0.00
2023-03-28T05:39:48.610Z,0.00
2023-03-28T05:42:16.131Z,0.10
2023-03-28T05:44:43.446Z,0.10
2023-03-28T05:47:28.620Z,0.20
2023-03-28T05:49:58.282Z,0.20
2023-03-28T05:52:25.562Z,0.20
2023-03-28T05:54:52.988Z,0.20
2023-03-28T05:57:21.891Z,0.20
2023-03-28T05:59:49.566Z,0.30
2023-03-28T06:02:23.673Z,0.30
2023-03-28T06:04:56.404Z,0.30
2023-03-28T06:07:35.324Z,0.40
2023-03-28T06:10:15.490Z,0.40
2023-03-28T06:12:51.556Z,0.40
2023-03-28T06:15:18.485Z,0.50
2023-03-28T06:17:47.898Z,0.50
2023-03-28T06:20:15.243Z,0.70
2023-03-28T06:22:42.363Z,0.70
2023-03-28T06:25:11.438Z,0.80
2023-03-28T06:27:38.515Z,0.90
2023-03-28T06:30:07.076Z,1.10
2023-03-28T06:32:42.142Z,1.10
2023-03-28T06:35:09.553Z,1.30
2023-03-28T06:37:36.551Z,1.40
2023-03-28T06:40:09.272Z,1.60
2023-03-28T06:42:36.702Z,1.80
2023-03-28T06:45:16.023Z,2.00
2023-03-28T06:47:51.691Z,2.20
2023-03-28T06:50:24.220Z,2.30
2023-03-28T06:52:55.849Z,2.40
2023-03-28T06:55:22.801Z,2.50
2023-03-28T06:57:49.718Z,2.70
2023-03-28T07:00:23.310Z,2.90
2023-03-28T07:03:08.603Z,3.00
2023-03-28T07:05:42.511Z,3.20
2023-03-28T07:08:12.380Z,3.30
2023-03-28T07:10:41.790Z,3.40
2023-03-28T07:13:11.018Z,3.50
2023-03-28T07:15:47.155Z,3.60
2023-03-28T07:18:14.065Z,3.70
2023-03-28T07:20:41.711Z,3.80
2023-03-28T07:23:08.994Z,3.80
2023-03-28T07:25:36.268Z,4.00
2023-03-28T07:28:03.528Z,4.10
2023-03-28T07:30:31.177Z,4.20
2023-03-28T07:33:09.308Z,4.30
2023-03-28T07:35:41.933Z,4.40
2023-03-28T07:38:12.359Z,4.60
2023-03-28T07:40:49.062Z,4.70
2023-03-28T07:43:16.282Z,4.90
2023-03-28T07:45:43.410Z,5.10
2023-03-28T07:48:10.953Z,5.30
2023-03-28T07:50:37.943Z,5.40
2023-03-28T07:53:04.961Z,5.60
2023-03-28T07:55:48.376Z,5.90
2023-03-28T07:58:24.481Z,6.10
2023-03-28T08:00:52.143Z,6.30
2023-03-28T08:03:24.939Z,6.50
2023-03-28T08:05:52.287Z,6.70
2023-03-28T08:08:21.808Z,6.80
2023-03-28T08:11:02.539Z,6.90
2023-03-28T08:13:29.592Z,7.00
2023-03-28T08:16:02.149Z,7.20
2023-03-28T08:18:29.274Z,7.20
2023-03-28T08:21:03.088Z,7.30
2023-03-28T08:23:33.016Z,7.60
2023-03-28T08:26:19.026Z,7.90
2023-03-28T08:28:51.316Z,8.20
2023-03-28T08:31:18.311Z,8.30
2023-03-28T08:33:54.342Z,8.50
2023-03-28T08:36:27.911Z,8.70
2023-03-28T08:39:00.503Z,8.80
2023-03-28T08:41:57.637Z,9.20
2023-03-28T08:44:37.794Z,9.40
2023-03-28T08:47:19.042Z,9.40
2023-03-28T08:50:14.539Z,9.30
2023-03-28T08:52:43.459Z,9.30
2023-03-28T08:55:29.190Z,9.50
2023-03-28T08:57:58.626Z,9.30
2023-03-28T09:00:32.860Z,9.20
2023-03-28T09:03:00.772Z,9.20
2023-03-28T09:08:44.067Z,9.10
2023-03-28T09:11:52.426Z,9.10
2023-03-28T09:15:00.252Z,9.30
2023-03-28T09:18:11.183Z,9.50
2023-03-28T09:20:45.578Z,9.50
2023-03-28T09:24:11.116Z,9.40
2023-03-28T09:27:06.453Z,9.40
2023-03-28T09:29:42.607Z,9.10
2023-03-28T09:32:33.502Z,9.00
2023-03-28T09:35:01.911Z,8.70
2023-03-28T09:37:41.273Z,8.60
2023-03-28T09:40:27.312Z,8.50
2023-03-28T09:43:28.285Z,8.60
2023-03-28T09:46:30.248Z,8.90
2023-03-28T09:49:20.219Z,9.20
2023-03-28T09:51:57.106Z,9.40
2023-03-28T09:54:35.465Z,9.40
2023-03-28T09:57:05.715Z,9.30
2023-03-28T09:59:44.720Z,9.20
2023-03-28T10:02:49.917Z,9.10
2023-03-28T10:05:40.218Z,9.10
2023-03-28T10:08:50.805Z,9.30
2023-03-28T10:11:28.412Z,9.70
2023-03-28T10:13:57.150Z,9.50
2023-03-28T10:16:34.295Z,9.60
2023-03-28T10:19:26.104Z,9.50
2023-03-28T10:22:35.834Z,9.50
2023-03-28T10:25:08.293Z,9.60
2023-03-28T10:27:37.448Z,9.80
2023-03-28T10:30:24.094Z,9.60
2023-03-28T10:33:26.158Z,9.50
2023-03-28T10:36:10.236Z,9.30
2023-03-28T10:38:49.904Z,9.10
2023-03-28T10:41:37.643Z,9.20
2023-03-28T10:44:37.796Z,9.40
2023-03-28T10:47:18.293Z,9.70
2023-03-28T10:50:00.696Z,9.70
2023-03-28T10:52:48.367Z,9.70
2023-03-28T10:55:31.385Z,9.90
2023-03-28T10:58:32.933Z,10.00
2023-03-28T11:01:24.669Z,10.00
2023-03-28T11:04:40.968Z,10.40
2023-03-28T11:07:41.817Z,10.40
2023-03-28T11:11:11.902Z,10.40
2023-03-28T11:14:15.039Z,10.20
2023-03-28T11:17:03.652Z,10.20
2023-03-28T11:20:07.038Z,10.30
2023-03-28T11:23:06.927Z,10.40
2023-03-28T11:26:08.407Z,10.50
2023-03-28T11:29:43.125Z,10.70
2023-03-28T11:32:43.838Z,10.90
2023-03-28T11:35:33.975Z,10.90
2023-03-28T11:38:23.866Z,11.00
2023-03-28T11:41:03.343Z,10.90
2023-03-28T11:44:13.620Z,10.80
2023-03-28T11:47:15.101Z,10.90
2023-03-28T11:50:09.043Z,10.90
2023-03-28T11:53:37.456Z,10.80
2023-03-28T11:56:50.910Z,10.60
2023-03-28T12:00:05.334Z,10.50
2023-03-28T12:03:23.465Z,10.20
2023-03-28T12:06:08.405Z,10.00
2023-03-28T12:08:45.690Z,9.90
2023-03-28T12:15:59.573Z,9.90
2023-03-28T12:19:03.925Z,10.10
2023-03-28T12:22:02.988Z,10.10
2023-03-28T12:25:00.227Z,10.10
2023-03-28T12:28:07.901Z,10.10
2023-03-28T12:30:45.299Z,10.20
2023-03-28T12:33:21.525Z,10.50
2023-03-28T12:36:36.107Z,10.90
2023-03-28T12:39:40.464Z,11.20
2023-03-28T12:42:21.913Z,11.40
2023-03-28T12:45:01.794Z,11.60
2023-03-28T12:47:43.788Z,11.70
2023-03-28T12:50:44.631Z,11.90
2023-03-28T12:53:22.564Z,11.80
2023-03-28T12:55:51.634Z,11.80
2023-03-28T12:58:28.751Z,11.70
2023-03-28T13:01:08.363Z,11.50
2023-03-28T13:03:59.325Z,11.50
2023-03-28T13:07:18.478Z,11.50
2023-03-28T13:09:59.647Z,11.50
2023-03-28T13:12:47.929Z,11.60
2023-03-28T13:15:14.640Z,11.70
2023-03-28T13:18:17.104Z,11.70
2023-03-28T13:20:47.021Z,11.60
2023-03-28T13:23:17.701Z,11.60
2023-03-28T13:25:55.517Z,11.50
2023-03-28T13:28:32.360Z,11.40
2023-03-28T13:31:25.784Z,11.20
2023-03-28T13:34:01.804Z,11.00
2023-03-28T13:36:32.540Z,11.00
2023-03-28T13:39:19.123Z,11.10
2023-03-28T13:41:46.058Z,11.10
2023-03-28T13:44:22.455Z,11.20
2023-03-28T13:46:53.022Z,11.30
2023-03-28T13:49:32.099Z,11.20
2023-03-28T13:52:04.793Z,11.20
2023-03-28T13:54:32.345Z,11.20
2023-03-28T13:57:17.726Z,11.20
2023-03-28T14:00:00.024Z,11.30
2023-03-28T14:02:42.539Z,11.20
2023-03-28T14:05:27.013Z,11.00
2023-03-28T14:08:09.854Z,11.20
2023-03-28T14:10:42.731Z,11.20
2023-03-28T14:13:18.318Z,11.30
2023-03-28T14:15:46.756Z,11.40
2023-03-28T14:18:32.028Z,11.50
2023-03-28T14:21:00.484Z,11.70
2023-03-28T14:23:39.068Z,11.90
2023-03-28T14:26:21.962Z,12.10
2023-03-28T14:28:52.024Z,12.20
2023-03-28T14:31:39.932Z,12.20
2023-03-28T14:34:38.634Z,12.10
2023-03-28T14:37:16.620Z,12.10
2023-03-28T14:39:45.278Z,12.00
2023-03-28T14:42:18.661Z,11.90
2023-03-28T14:44:51.995Z,12.00
2023-03-28T14:47:32.199Z,12.20
2023-03-28T14:50:01.342Z,12.30
2023-03-28T14:52:36.529Z,12.20
2023-03-28T14:55:05.176Z,12.00
2023-03-28T14:57:33.635Z,12.00
2023-03-28T15:00:02.035Z,12.10
2023-03-28T15:02:36.419Z,12.00
2023-03-28T15:05:12.899Z,12.10
2023-03-28T15:07:41.756Z,12.10
2023-03-28T15:10:23.499Z,11.90
2023-03-28T15:13:23.205Z,11.90
2023-03-28T15:15:53.582Z,11.90
2023-03-28T15:18:28.454Z,11.90
2023-03-28T15:21:00.674Z,11.90
2023-03-28T15:23:38.550Z,11.80
2023-03-28T15:26:20.033Z,11.80
2023-03-28T15:28:48.647Z,11.60
2023-03-28T15:31:17.116Z,11.50
2023-03-28T15:33:47.712Z,11.30
2023-03-28T15:36:23.649Z,11.20
2023-03-28T15:38:59.939Z,11.00
2023-03-28T15:41:48.888Z,11.00
2023-03-28T15:44:27.643Z,11.00
2023-03-28T15:46:59.528Z,10.90
2023-03-28T15:49:27.853Z,10.90
2023-03-28T15:52:04.807Z,10.80
2023-03-28T15:54:44.531Z,10.80
2023-03-28T15:57:14.814Z,10.70
2023-03-28T15:59:48.550Z,10.70
2023-03-28T16:02:24.832Z,10.70
2023-03-28T16:05:10.141Z,10.70
2023-03-28T16:07:50.611Z,10.80
2023-03-28T16:10:21.561Z,10.80
2023-03-28T16:13:16.772Z,10.80
2023-03-28T16:15:56.991Z,10.70
2023-03-28T16:18:47.837Z,10.80
2023-03-28T16:21:16.607Z,10.70
2023-03-28T16:23:43.654Z,10.70
2023-03-28T16:26:11.145Z,10.70
2023-03-28T16:28:38.577Z,10.70
2023-03-28T16:31:05.919Z,10.80
2023-03-28T16:33:33.001Z,10.80
2023-03-28T16:36:00.877Z,10.70
2023-03-28T16:38:28.532Z,10.70
2023-03-28T16:40:55.996Z,10.60
2023-03-28T16:43:23.169Z,10.60
2023-03-28T16:45:50.419Z,10.60
2023-03-28T16:48:17.753Z,10.50
2023-03-28T16:50:59.215Z,10.50
2023-03-28T16:53:26.428Z,10.50
2023-03-28T16:55:53.879Z,10.50
2023-03-28T16:58:21.461Z,10.40
2023-03-28T17:00:51.629Z,10.40
2023-03-28T17:03:19.038Z,10.40
2023-03-28T17:05:46.462Z,10.40
2023-03-28T17:08:13.598Z,10.30
2023-03-28T17:10:47.385Z,10.40
2023-03-28T17:13:14.609Z,10.30
2023-03-28T17:15:45.171Z,10.40
2023-03-28T17:18:12.549Z,10.30
2023-03-28T17:20:39.786Z,10.30
2023-03-28T17:23:07.593Z,10.30
2023-03-28T17:25:41.687Z,10.30
2023-03-28T17:28:12.038Z,10.20
2023-03-28T17:30:39.896Z,10.20
2023-03-28T17:33:07.042Z,10.20
2023-03-28T17:35:34.424Z,10.20
2023-03-28T17:38:01.496Z,10.20
2023-03-28T17:40:29.287Z,10.10
2023-03-28T17:42:56.269Z,10.10
2023-03-28T17:45:25.859Z,10.00
2023-03-28T17:47:55.846Z,10.00
2023-03-28T17:50:23.299Z,10.00
2023-03-28T17:52:50.556Z,10.00
2023-03-28T17:55:18.007Z,10.00
2023-03-28T17:57:45.093Z,10.00
2023-03-28T18:00:13.386Z,9.90
2023-03-28T18:02:45.885Z,9.90
2023-03-28T18:05:30.379Z,9.90
2023-03-28T18:07:57.658Z,9.90
2023-03-28T18:10:25.141Z,9.90
2023-03-28T18:12:52.615Z,9.90
2023-03-28T18:15:19.548Z,9.90
2023-03-28T18:17:46.794Z,9.90
2023-03-28T18:20:13.990Z,9.90
2023-03-28T18:22:42.345Z,9.80
2023-03-28T18:25:09.737Z,9.80
2023-03-28T18:27:36.696Z,9.80
2023-03-28T18:30:08.120Z,9.80
2023-03-28T18:32:36.573Z,9.80
2023-03-28T18:35:07.110Z,9.80
2023-03-28T18:37:34.811Z,9.80
2023-03-28T18:40:02.493Z,9.80
2023-03-28T18:42:31.296Z,9.80
2023-03-28T18:44:58.316Z,9.80
2023-03-28T18:47:25.402Z,9.80
2023-03-28T18:49:52.493Z,9.70
2023-03-28T18:52:19.481Z,9.70
2023-03-28T18:54:48.016Z,9.70
2023-03-28T18:57:16.037Z,9.60
2023-03-28T18:59:44.007Z,9.60
2023-03-28T19:02:16.979Z,9.60
2023-03-28T19:04:44.479Z,9.60
2023-03-28T19:07:13.371Z,9.40
2023-03-28T19:09:40.938Z,9.30
2023-03-28T19:12:12.581Z,9.10
2023-03-28T19:14:39.781Z,9.00
2023-03-28T19:17:07.291Z,8.90
2023-03-28T19:19:37.319Z,8.80
2023-03-28T19:22:06.332Z,8.70
2023-03-28T19:24:46.378Z,8.50
2023-03-28T19:27:18.164Z,8.40
2023-03-28T19:29:46.449Z,8.30
2023-03-28T19:32:13.469Z,8.20
2023-03-28T19:34:40.530Z,8.10
2023-03-28T19:37:08.066Z,8.10
2023-03-28T19:39:35.270Z,8.10
2023-03-28T19:42:02.368Z,8.10
2023-03-28T19:44:36.091Z,8.00
2023-03-28T19:47:04.814Z,8.00
2023-03-28T19:49:32.660Z,8.00
2023-03-28T19:52:00.097Z,8.00
2023-03-28T19:54:27.177Z,7.90
2023-03-28T19:56:54.663Z,7.90
2023-03-28T19:59:21.991Z,7.90
2023-03-28T20:01:49.036Z,7.80
2023-03-28T20:04:16.278Z,7.70
2023-03-28T20:06:43.412Z,7.70
2023-03-28T20:09:10.439Z,7.70
2023-03-28T20:11:42.073Z,7.60
2023-03-28T20:14:09.653Z,7.60
2023-03-28T20:16:38.130Z,7.50
2023-03-28T20:19:05.742Z,7.50
2023-03-28T20:21:32.717Z,7.40
2023-03-28T20:24:00.588Z,7.30
2023-03-28T20:26:28.125Z,7.20
2023-03-28T20:28:59.289Z,7.10
2023-03-28T20:31:28.313Z,7.10
2023-03-28T20:33:56.873Z,7.10
2023-03-28T20:36:43.734Z,7.10
2023-03-28T20:39:29.032Z,7.10
2023-03-28T20:42:08.157Z,7.00
2023-03-28T20:44:38.255Z,6.90
2023-03-28T20:47:08.636Z,6.90
2023-03-28T20:49:37.892Z,6.90
2023-03-28T20:52:07.950Z,6.80
2023-03-28T20:54:35.153Z,6.80
2023-03-28T20:57:02.307Z,6.80
2023-03-28T20:59:29.409Z,6.80
2023-03-28T21:01:56.609Z,6.80
2023-03-28T21:04:23.827Z,6.70
2023-03-28T21:06:50.914Z,6.70
2023-03-28T21:09:18.377Z,6.70
2023-03-28T21:11:45.739Z,6.70
2023-03-28T21:14:14.251Z,6.70
2023-03-28T21:16:41.738Z,6.70
2023-03-28T21:19:09.781Z,6.70
2023-03-28T21:21:36.804Z,6.70
2023-03-28T21:24:05.264Z,6.70
2023-03-28T21:26:32.347Z,6.60
2023-03-28T21:28:59.427Z,6.60
2023-03-28T21:31:29.226Z,6.60
2023-03-28T21:33:58.961Z,6.60
2023-03-28T21:36:27.641Z,6.60
2023-03-28T21:38:56.124Z,6.60
2023-03-28T21:41:23.191Z,6.60
2023-03-28T21:43:51.760Z,6.60
2023-03-28T21:46:19.575Z,6.60
2023-03-28T21:48:48.268Z,6.60
2023-03-28T21:51:17.397Z,6.50
2023-03-28T21:53:45.702Z,6.50
2023-03-28T21:56:14.440Z,6.50
2023-03-28T21:58:41.730Z,6.50
2023-03-28T22:01:12.513Z,6.50
2023-03-28T22:03:40.247Z,6.50
2023-03-28T22:06:08.040Z,6.50
2023-03-28T22:08:35.213Z,6.50
2023-03-28T22:11:11.033Z,6.50
2023-03-28T22:13:38.776Z,6.50
2023-03-28T22:16:09.251Z,6.50
2023-03-28T22:18:36.862Z,6.50
2023-03-28T22:21:04.343Z,6.50
2023-03-28T22:23:31.644Z,6.50
2023-03-28T22:25:58.779Z,6.50
2023-03-28T22:28:26.082Z,6.50
2023-03-28T22:30:57.147Z,6.50
2023-03-28T22:33:25.489Z,6.40
2023-03-28T22:35:53.046Z,6.40
2023-03-28T22:38:20.393Z,6.40
2023-03-28T22:40:47.657Z,6.40
2023-03-28T22:43:16.285Z,6.40
2023-03-28T22:45:44.071Z,6.40
2023-03-28T22:48:14.820Z,6.40
2023-03-28T22:50:45.599Z,6.30
2023-03-28T22:53:14.614Z,6.30
2023-03-28T22:55:43.703Z,6.40
2023-03-28T22:58:12.150Z,6.30
2023-03-28T23:00:39.640Z,6.30
2023-03-28T23:03:10.243Z,6.30
2023-03-28T23:05:37.889Z,6.30
2023-03-28T23:08:06.396Z,6.30
2023-03-28T23:10:34.118Z,6.30
2023-03-28T23:13:01.343Z,6.30
2023-03-28T23:15:28.732Z,6.40
2023-03-28T23:17:56.423Z,6.30
2023-03-28T23:20:24.777Z,6.30
2023-03-28T23:22:51.954Z,6.40
2023-03-28T23:25:19.661Z,6.30
2023-03-28T23:27:47.186Z,6.30
2023-03-28T23:30:15.738Z,6.30
2023-03-28T23:32:43.040Z,6.30
2023-03-28T23:35:11.811Z,6.30
2023-03-28T23:37:39.893Z,6.30
2023-03-28T23:40:15.930Z,6.30
2023-03-28T23:42:44.869Z,6.30
2023-03-28T23:45:15.918Z,6.30
2023-03-28T23:47:44.316Z,6.30
2023-03-28T23:50:12.146Z,6.20
2023-03-28T23:52:39.859Z,6.30
2023-03-28T23:55:08.595Z,6.30
2023-03-28T23:57:35.904Z,6.30
